Time;durP1;ratioP1;P1;durP2;ratioP2;P2;SDS_P1;SDS_P2;PMS_P1;PMS_P2;Temp;Humidity;BMP_temperature;BMP_pressure;BME280_temperature;BME280_humidity;BME280_pressure;Samples;Min_cycle;Max_cycle;Signal;HPM_P1;HPM_P2
2023/04/02 00:00:59;;;;;;;8.33;2.40;;;;;;;2.07;100.00;102007.63;5034033;28;20136;-76
2023/04/02 00:03:25;;;;;;;5.05;1.60;;;;;;;1.84;100.00;102006.31;5034305;28;20026;-76
2023/04/02 00:05:50;;;;;;;8.10;1.92;;;;;;;1.64;100.00;102002.13;5016373;28;20037;-77
2023/04/02 00:08:28;;;;;;;10.07;1.98;;;;;;;1.50;100.00;102021.47;5033059;28;20068;-76
2023/04/02 00:10:58;;;;;;;4.45;1.45;;;;;;;1.31;100.00;102013.69;5016817;28;20040;-77
2023/04/02 00:13:31;;;;;;;3.42;1.38;;;;;;;1.08;100.00;102012.31;5000349;28;20034;-76
2023/04/02 00:15:58;;;;;;;6.10;1.40;;;;;;;0.98;100.00;102021.69;5033054;28;20029;-77
2023/04/02 00:18:24;;;;;;;2.42;1.38;;;;;;;1.01;100.00;102019.75;5032636;28;20036;-77
2023/04/02 00:21:20;;;;;;;7.32;1.50;;;;;;;0.96;100.00;102029.72;5016507;28;20033;-77
2023/04/02 00:23:46;;;;;;;5.75;1.80;;;;;;;0.94;100.00;102031.59;5032977;28;20026;-77
2023/04/02 00:26:30;;;;;;;5.32;2.17;;;;;;;0.84;100.00;102030.38;5016484;28;20040;-78
2023/04/02 00:28:56;;;;;;;3.63;1.25;;;;;;;0.80;100.00;102035.00;5000241;28;20041;-77
2023/04/02 00:31:22;;;;;;;7.18;1.80;;;;;;;0.71;100.00;102038.09;5032947;28;20048;-77
2023/04/02 00:33:48;;;;;;;2.40;1.35;;;;;;;0.63;100.00;102048.25;5016325;28;20033;-77
2023/04/02 00:36:18;;;;;;;6.10;2.40;;;;;;;0.56;100.00;102049.53;5016350;28;20417;-80
2023/04/02 00:38:45;;;;;;;11.38;2.22;;;;;;;0.60;100.00;102053.69;5016580;28;20044;-77
2023/04/02 00:41:20;;;;;;;7.78;1.90;;;;;;;0.61;100.00;102043.03;5032547;28;20086;-76
2023/04/02 00:43:49;;;;;;;3.80;1.90;;;;;;;0.67;100.00;102064.84;5016288;28;20033;-77
2023/04/02 00:46:17;;;;;;;7.85;1.88;;;;;;;0.80;100.00;102072.06;5016711;28;20037;-78
2023/04/02 00:49:00;;;;;;;3.88;2.08;;;;;;;0.78;100.00;102073.91;5031947;28;20043;-77
2023/04/02 00:51:31;;;;;;;6.88;1.77;;;;;;;0.60;100.00;102064.28;4999825;28;20059;-77
2023/04/02 00:53:59;;;;;;;4.85;1.90;;;;;;;0.38;100.00;102070.69;5032199;28;20495;-77
2023/04/02 00:56:36;;;;;;;8.30;1.75;;;;;;;0.24;100.00;102061.72;5015945;28;20116;-77
2023/04/02 00:59:01;;;;;;;7.57;1.70;;;;;;;0.31;100.00;102082.50;5032353;28;20021;-77
2023/04/02 01:01:35;;;;;;;6.15;1.60;;;;;;;0.26;100.00;102091.59;5015851;28;20107;-76
2023/04/02 01:04:04;;;;;;;2.97;1.42;;;;;;;0.27;100.00;102082.75;5016314;28;20033;-77
2023/04/02 01:06:37;;;;;;;2.90;1.40;;;;;;;0.28;100.00;102074.72;4999724;28;20380;-77
2023/04/02 01:09:09;;;;;;;2.78;1.55;;;;;;;0.38;100.00;102073.31;4983633;28;20085;-78
2023/04/02 01:11:44;;;;;;;3.65;1.67;;;;;;;0.38;100.00;102085.72;5032477;28;20132;-77
2023/04/02 01:14:37;;;;;;;5.18;1.50;;;;;;;0.22;100.00;102091.75;5015545;28;20025;-78
2023/04/02 01:17:32;;;;;;;4.43;1.60;;;;;;;0.13;100.00;102094.00;5033127;28;20029;-77
2023/04/02 01:20:24;;;;;;;5.28;2.22;;;;;;;0.06;100.00;102076.75;5030277;28;20038;-77
2023/04/02 01:22:56;;;;;;;3.70;1.83;;;;;;;0.34;100.00;102105.31;5032345;28;20030;-77
2023/04/02 01:25:37;;;;;;;3.95;1.75;;;;;;;0.37;100.00;102123.66;5033651;28;20079;-77
2023/04/02 01:28:11;;;;;;;4.35;2.03;;;;;;;0.38;100.00;102120.97;4999947;28;20472;-77
2023/04/02 01:30:37;;;;;;;9.82;2.00;;;;;;;0.52;100.00;102130.00;5032018;28;20026;-77
2023/04/02 01:33:04;;;;;;;4.30;1.80;;;;;;;0.54;100.00;102128.13;4999512;28;20136;-77
2023/04/02 01:35:33;;;;;;;6.22;3.00;;;;;;;0.54;100.00;102136.06;5015335;28;20033;-77
2023/04/02 01:38:09;;;;;;;10.27;2.33;;;;;;;0.68;100.00;102140.66;4983458;28;20056;-77
2023/04/02 01:41:05;;;;;;;7.90;1.88;;;;;;;0.77;100.00;102138.41;4999774;28;20615;-80
2023/04/02 01:43:43;;;;;;;4.35;2.45;;;;;;;0.98;100.00;102147.03;5031623;28;20123;-77
2023/04/02 01:46:28;;;;;;;7.28;2.50;;;;;;;1.07;100.00;102149.19;5031852;28;20048;-77
2023/04/02 01:48:55;;;;;;;15.02;5.57;;;;;;;1.18;100.00;102161.88;5015339;28;20041;-77
2023/04/02 01:51:32;;;;;;;24.83;10.45;;;;;;;1.24;100.00;102161.53;5032014;28;20041;-77
2023/04/02 01:54:00;;;;;;;20.20;7.50;;;;;;;1.38;100.00;102173.25;5015541;28;20041;-77
2023/04/02 01:56:27;;;;;;;20.85;7.97;;;;;;;1.47;100.00;102167.44;5031789;28;20036;-77
2023/04/02 01:58:52;;;;;;;19.98;8.90;;;;;;;1.55;100.00;102162.56;5015194;28;20048;-79
2023/04/02 02:01:20;;;;;;;10.30;3.83;;;;;;;1.64;100.00;102178.00;5017010;28;20396;-77
2023/04/02 02:03:46;;;;;;;11.23;3.17;;;;;;;1.72;100.00;102173.13;5018932;28;20087;-77
2023/04/02 02:06:14;;;;;;;8.77;2.95;;;;;;;1.78;100.00;102171.94;5035367;28;20460;-77
2023/04/02 02:08:52;;;;;;;7.32;2.60;;;;;;;1.88;100.00;102173.13;5034878;28;20026;-77
2023/04/02 02:11:21;;;;;;;7.88;1.70;;;;;;;1.97;100.00;102163.81;5018492;28;20387;-78
2023/04/02 02:13:52;;;;;;;6.95;2.10;;;;;;;1.90;100.00;102147.38;5002748;28;20035;-79
2023/04/02 02:16:18;;;;;;;6.43;1.85;;;;;;;1.89;100.00;102152.78;5019031;28;20034;-78
2023/04/02 02:18:47;;;;;;;3.40;1.63;;;;;;;2.00;100.00;102165.44;5002479;28;20029;-77
2023/04/02 02:21:20;;;;;;;5.05;1.70;;;;;;;2.04;100.00;102165.19;5002337;28;20053;-77
2023/04/02 02:23:46;;;;;;;3.75;1.80;;;;;;;2.09;100.00;102173.75;5002529;28;20033;-78
2023/04/02 02:26:12;;;;;;;7.68;1.63;;;;;;;2.03;100.00;102144.88;5018501;28;20033;-77
2023/04/02 02:28:40;;;;;;;5.43;1.80;;;;;;;2.15;100.00;102160.13;5018645;28;20068;-78
2023/04/02 02:31:11;;;;;;;1.65;0.98;;;;;;;2.16;100.00;102163.63;5001918;28;20060;-77
2023/04/02 02:33:41;;;;;;;3.33;1.80;;;;;;;2.19;100.00;102161.63;5018475;28;20476;-78
2023/04/02 02:36:25;;;;;;;8.05;1.98;;;;;;;2.13;100.00;102156.69;5018385;28;20075;-79
2023/04/02 02:38:55;;;;;;;7.95;1.88;;;;;;;2.00;100.00;102141.56;5034826;28;20034;-78
2023/04/02 02:41:26;;;;;;;8.55;1.92;;;;;;;1.91;100.00;102158.84;5001849;28;20059;-77
2023/04/02 02:44:17;;;;;;;7.28;2.00;;;;;;;1.70;100.00;102159.09;5001977;28;20041;-77
2023/04/02 02:46:51;;;;;;;3.13;1.55;;;;;;;1.44;100.00;102152.53;5012142;28;20041;-77
2023/04/02 02:49:21;;;;;;;9.27;1.65;;;;;;;1.19;100.00;102131.81;5001703;28;20408;-77
2023/04/02 02:52:05;;;;;;;3.40;1.88;;;;;;;1.03;100.00;102129.13;5018203;28;20041;-77
2023/04/02 02:54:34;;;;;;;10.30;2.33;;;;;;;0.88;100.00;102136.06;5017962;28;20037;-76
2023/04/02 02:57:05;;;;;;;4.30;1.80;;;;;;;0.68;100.00;102125.63;5034461;28;20045;-77
2023/04/02 02:59:31;;;;;;;4.93;1.80;;;;;;;0.61;100.00;102137.50;5001722;28;20047;-77
2023/04/02 03:01:58;;;;;;;4.60;1.40;;;;;;;0.54;100.00;102136.91;5001511;28;20112;-77
2023/04/02 03:04:24;;;;;;;4.03;1.63;;;;;;;0.53;100.00;102132.56;5017695;28;20025;-78
2023/04/02 03:06:56;;;;;;;5.28;2.13;;;;;;;0.42;100.00;102124.28;5001473;28;20148;-77
2023/04/02 03:09:33;;;;;;;5.80;1.58;;;;;;;0.24;100.00;102109.34;5017856;28;20136;-77
2023/04/02 03:12:22;;;;;;;3.90;1.73;;;;;;;0.29;100.00;102129.38;5034288;28;20112;-77
2023/04/02 03:14:56;;;;;;;2.28;1.20;;;;;;;0.24;100.00;102130.50;5034266;28;20456;-77
2023/04/02 03:17:29;;;;;;;4.53;1.67;;;;;;;0.20;100.00;102132.44;5033934;28;20376;-77
2023/04/02 03:20:05;;;;;;;3.50;1.63;;;;;;;0.36;100.00;102130.75;5033984;28;20046;-77
2023/04/02 03:22:37;;;;;;;3.63;1.25;;;;;;;0.37;100.00;102140.41;5033908;28;20494;-77
2023/04/02 03:25:12;;;;;;;5.22;1.70;;;;;;;0.26;100.00;102141.88;5017516;28;20033;-77
2023/04/02 03:27:41;;;;;;;7.45;2.00;;;;;;;0.17;100.00;102135.25;5033513;28;20029;-77
2023/04/02 03:30:30;;;;;;;6.15;1.65;;;;;;;0.20;100.00;102146.53;5001227;28;20029;-77
2023/04/02 03:33:10;;;;;;;2.08;1.50;;;;;;;0.09;100.00;102148.00;5033746;28;20107;-77
2023/04/02 03:35:46;;;;;;;4.07;1.75;;;;;;;0.05;100.00;102154.34;5033418;28;20079;-77
2023/04/02 03:38:27;;;;;;;6.32;2.33;;;;;;;0.09;100.00;102153.28;5017238;28;20021;-77
2023/04/02 03:41:16;;;;;;;2.45;1.33;;;;;;;0.10;100.00;102155.81;5000872;28;20083;-77
2023/04/02 03:43:46;;;;;;;8.38;1.83;;;;;;;-0.01;100.00;102158.13;5033209;28;20033;-79
2023/04/02 03:46:34;;;;;;;5.07;1.60;;;;;;;-0.13;100.00;102171.94;4984809;28;20029;-77
2023/04/02 03:49:08;;;;;;;2.72;1.70;;;;;;;-0.26;100.00;102161.94;5016666;28;20083;-78
2023/04/02 03:51:52;;;;;;;3.15;1.65;;;;;;;-0.30;100.00;102167.44;5016988;28;20084;-77
2023/04/02 03:54:18;;;;;;;4.05;1.77;;;;;;;-0.33;100.00;102164.94;4985248;28;20495;-77
2023/04/02 03:56:46;;;;;;;3.60;1.55;;;;;;;-0.42;100.00;102168.00;5016619;28;20472;-77
2023/04/02 03:59:26;;;;;;;4.93;1.50;;;;;;;-0.46;100.00;102170.78;5033261;28;20030;-77
2023/04/02 04:02:25;;;;;;;2.10;1.40;;;;;;;-0.48;100.00;102177.06;5034349;28;20032;-77
2023/04/02 04:04:52;;;;;;;5.85;1.85;;;;;;;-0.59;100.00;102163.50;5016543;28;20099;-77
2023/04/02 04:07:27;;;;;;;4.30;1.60;;;;;;;-0.68;100.00;102167.41;5033125;28;20038;-77
2023/04/02 04:09:53;;;;;;;5.70;1.50;;;;;;;-0.70;100.00;102190.38;5016796;28;20046;-77
2023/04/02 04:12:30;;;;;;;3.78;1.65;;;;;;;-0.78;100.00;102193.38;5016350;28;20115;-76
2023/04/02 04:15:01;;;;;;;3.28;1.60;;;;;;;-0.90;100.00;102175.41;5016410;28;20056;-77
2023/04/02 04:17:29;;;;;;;3.28;1.60;;;;;;;-1.07;100.00;102167.38;5016603;28;20029;-76
2023/04/02 04:20:10;;;;;;;5.03;1.55;;;;;;;-0.99;100.00;102187.22;5033799;28;20076;-77
2023/04/02 04:22:36;;;;;;;1.50;1.27;;;;;;;-1.00;100.00;102184.69;5033958;28;20037;-76
2023/04/02 04:25:05;;;;;;;2.22;1.33;;;;;;;-0.99;100.00;102181.94;5032513;28;20029;-77
2023/04/02 04:27:37;;;;;;;2.22;1.42;;;;;;;-0.94;100.00;102185.25;5000145;28;20480;-76
2023/04/02 04:30:19;;;;;;;3.20;1.63;;;;;;;-1.11;100.00;102161.38;5032946;28;20116;-77
2023/04/02 04:32:56;;;;;;;2.15;1.77;;;;;;;-1.04;100.00;102178.66;5033950;28;20047;-76
2023/04/02 04:35:32;;;;;;;4.15;1.65;;;;;;;-1.13;100.00;102165.84;5016479;28;20109;-76
2023/04/02 04:38:03;;;;;;;4.60;1.42;;;;;;;-1.02;100.00;102179.44;5000090;28;20033;-76
2023/04/02 04:40:32;;;;;;;2.67;1.45;;;;;;;-1.04;100.00;102180.44;4999936;28;20057;-76
2023/04/02 04:43:02;;;;;;;3.08;1.70;;;;;;;-1.06;100.00;102182.28;5000136;28;20025;-76
2023/04/02 04:45:57;;;;;;;2.17;1.30;;;;;;;-1.17;100.00;102183.59;5015878;28;20030;-76
2023/04/02 04:48:26;;;;;;;7.65;2.10;;;;;;;-1.12;100.00;102194.81;5030171;28;20049;-77
2023/04/02 04:50:58;;;;;;;6.97;1.88;;;;;;;-1.13;100.00;102200.16;5032409;28;20029;-76
2023/04/02 04:53:26;;;;;;;7.65;2.08;;;;;;;-1.01;100.00;102197.00;5015773;28;20112;-76
2023/04/02 04:55:55;;;;;;;1.35;1.00;;;;;;;-0.90;100.00;102199.16;5033433;28;20034;-76
2023/04/02 04:58:31;;;;;;;2.33;1.52;;;;;;;-0.63;100.00;102196.28;5016210;28;20503;-76
2023/04/02 05:01:20;;;;;;;1.42;1.00;;;;;;;-0.48;100.00;102200.84;5032339;28;20034;-78
2023/04/02 05:04:09;;;;;;;3.33;1.67;;;;;;;-0.29;100.00;102196.47;4999776;28;20032;-77
2023/04/02 05:06:35;;;;;;;2.55;1.25;;;;;;;-0.22;100.00;102182.00;5030244;28;20065;-77
2023/04/02 05:09:26;;;;;;;2.33;1.58;;;;;;;0.04;100.00;102202.88;5032231;28;20444;-76
2023/04/02 05:12:19;;;;;;;1.85;0.95;;;;;;;0.13;100.00;102205.97;5005351;28;20041;-77
2023/04/02 05:14:49;;;;;;;;;;;;;;;0.15;100.00;102198.78;5032848;28;20030;-77
2023/04/02 05:17:35;;;;;;;4.65;1.58;;;;;;;0.10;100.00;102197.28;5032430;28;19909;-76
2023/04/02 05:20:15;;;;;;;2.83;1.52;;;;;;;0.01;100.00;102182.72;5031869;28;20026;-76
2023/04/02 05:22:48;;;;;;;5.32;1.60;;;;;;;-0.06;100.00;102181.28;5015792;28;20075;-77
2023/04/02 05:25:20;;;;;;;6.00;1.70;;;;;;;-0.19;100.00;102186.28;5033293;28;20079;-77
2023/04/02 05:27:54;;;;;;;4.97;1.63;;;;;;;-0.36;100.00;102187.09;5033068;28;20057;-77
2023/04/02 05:30:22;;;;;;;5.75;1.50;;;;;;;-0.51;100.00;102190.41;5015857;28;20037;-77
2023/04/02 05:32:59;;;;;;;6.43;1.27;;;;;;;-0.76;100.00;102172.19;5031946;28;20049;-78
2023/04/02 05:35:32;;;;;;;4.68;2.00;;;;;;;-0.75;100.00;102208.22;5032552;28;20029;-77
2023/04/02 05:38:00;;;;;;;1.90;1.30;;;;;;;-0.74;100.00;102221.38;5035676;28;20038;-78
2023/04/02 05:40:43;;;;;;;2.08;1.38;;;;;;;-0.65;100.00;102216.59;5035590;28;20116;-76
2023/04/02 05:43:10;;;;;;;2.40;1.40;;;;;;;-0.44;100.00;102218.28;5019590;28;20037;-76
2023/04/02 05:45:37;;;;;;;4.03;1.98;;;;;;;-0.30;100.00;102225.59;5002942;28;20037;-76
2023/04/02 05:48:16;;;;;;;3.20;1.83;;;;;;;-0.11;100.00;102213.22;5002718;28;20041;-77
2023/04/02 05:50:46;;;;;;;3.65;2.10;;;;;;;0.08;100.00;102222.94;5019118;28;20060;-77
2023/04/02 05:53:16;;;;;;;5.38;1.67;;;;;;;0.25;100.00;102227.47;5035516;28;20120;-78
2023/04/02 05:55:50;;;;;;;4.53;1.48;;;;;;;0.39;100.00;102231.16;5019101;28;20088;-77
2023/04/02 05:58:27;;;;;;;2.13;1.42;;;;;;;0.57;100.00;102242.63;5003048;28;20060;-77
2023/04/02 06:01:06;;;;;;;3.15;1.63;;;;;;;0.67;100.00;102236.91;5035132;28;20113;-76
2023/04/02 06:03:44;;;;;;;6.40;1.52;;;;;;;0.84;100.00;102236.91;5003030;28;20120;-77
2023/04/02 06:06:18;;;;;;;2.42;1.25;;;;;;;0.95;100.00;102234.56;5019047;28;20033;-76
2023/04/02 06:08:59;;;;;;;5.97;2.00;;;;;;;1.12;100.00;102239.03;5035239;28;20490;-77
2023/04/02 06:11:31;;;;;;;5.25;1.55;;;;;;;1.19;100.00;102244.84;5002681;28;20049;-78
2023/04/02 06:13:58;;;;;;;2.28;1.30;;;;;;;1.06;100.00;102226.13;5035174;28;20033;-77
2023/04/02 06:16:26;;;;;;;6.13;1.60;;;;;;;1.05;100.00;102237.63;5018688;28;20030;-77
2023/04/02 06:18:52;;;;;;;6.88;2.25;;;;;;;1.11;100.00;102242.59;5018428;28;20041;-77
2023/04/02 06:21:19;;;;;;;5.05;1.48;;;;;;;1.02;100.00;102229.84;5002423;28;20064;-77
2023/04/02 06:24:01;;;;;;;9.55;2.15;;;;;;;1.20;100.00;102241.28;5018817;28;20037;-76
2023/04/02 06:26:39;;;;;;;2.53;1.52;;;;;;;1.26;100.00;102244.47;4986269;28;20443;-77
2023/04/02 06:29:10;;;;;;;4.07;1.73;;;;;;;1.23;100.00;102243.78;5018490;28;20476;-77
2023/04/02 06:31:40;;;;;;;2.28;1.10;;;;;;;1.20;100.00;102238.66;5034658;28;20029;-76
2023/04/02 06:34:13;;;;;;;4.72;1.73;;;;;;;1.21;100.00;102243.00;5018578;28;20033;-77
2023/04/02 06:36:39;;;;;;;2.67;1.55;;;;;;;1.40;100.00;102262.31;5018409;28;20072;-76
2023/04/02 06:39:09;;;;;;;3.67;1.13;;;;;;;1.52;100.00;102260.81;5018439;28;20049;-76
2023/04/02 06:41:35;;;;;;;4.43;1.42;;;;;;;1.71;100.00;102277.47;5018377;28;20067;-76
2023/04/02 06:44:11;;;;;;;5.28;1.38;;;;;;;1.88;100.00;102267.75;5034736;28;20021;-78
2023/04/02 06:46:41;;;;;;;2.97;1.60;;;;;;;2.05;100.00;102270.34;5001628;28;20032;-76
2023/04/02 06:49:34;;;;;;;3.58;1.50;;;;;;;2.25;100.00;102273.69;5034906;28;20124;-79
2023/04/02 06:52:01;;;;;;;3.28;1.50;;;;;;;2.38;100.00;102272.97;5034423;28;20053;-76
2023/04/02 06:54:27;;;;;;;4.20;2.08;;;;;;;2.49;100.00;102267.06;4985835;28;20049;-76
2023/04/02 06:56:55;;;;;;;4.53;1.80;;;;;;;2.72;100.00;102275.50;5018130;28;20037;-77
2023/04/02 06:59:21;;;;;;;3.47;1.40;;;;;;;2.84;100.00;102277.47;5018162;28;20037;-76
2023/04/02 07:02:06;;;;;;;4.10;1.67;;;;;;;2.86;100.00;102259.63;5001593;28;20113;-77
2023/04/02 07:04:32;;;;;;;3.28;1.83;;;;;;;3.02;100.00;102273.75;5001912;28;20033;-77
2023/04/02 07:06:57;;;;;;;2.78;1.60;;;;;;;3.17;100.00;102265.78;5034300;28;20380;-76
2023/04/02 07:09:24;;;;;;;6.68;1.95;;;;;;;3.32;100.00;102267.56;5001421;28;20108;-77
2023/04/02 07:11:50;;;;;;;3.72;1.75;;;;;;;3.56;100.00;102270.53;5017838;28;20037;-76
2023/04/02 07:14:15;;;;;;;5.18;1.50;;;;;;;3.67;100.00;102269.88;5034007;28;20059;-77
2023/04/02 07:16:42;;;;;;;4.13;1.80;;;;;;;3.80;100.00;102265.50;5034027;28;20052;-77
2023/04/02 07:19:16;;;;;;;4.18;1.90;;;;;;;3.97;100.00;102269.81;5017343;28;20099;-76
2023/04/02 07:21:41;;;;;;;2.88;1.45;;;;;;;4.12;100.00;102274.13;5033565;28;20026;-76
2023/04/02 07:24:09;;;;;;;6.38;2.60;;;;;;;4.31;100.00;102265.88;5033905;28;20040;-77
2023/04/02 07:26:35;;;;;;;2.20;1.35;;;;;;;4.53;100.00;102275.13;5033850;28;20381;-78
2023/04/02 07:29:01;;;;;;;2.97;1.45;;;;;;;4.62;100.00;102254.06;5033516;28;20387;-76
2023/04/02 07:31:27;;;;;;;8.18;1.90;;;;;;;4.84;100.00;102255.31;5016943;28;20036;-76
2023/04/02 07:33:57;;;;;;;4.95;1.77;;;;;;;5.26;100.00;102283.56;5033770;28;20048;-77
2023/04/02 07:36:23;;;;;;;3.25;1.55;;;;;;;5.49;100.00;102276.66;5017374;28;20040;-76
2023/04/02 07:38:49;;;;;;;5.43;1.92;;;;;;;5.61;100.00;102283.00;5033281;28;20104;-76
2023/04/02 07:41:15;;;;;;;3.92;1.88;;;;;;;5.68;100.00;102280.72;5017035;28;20045;-77
2023/04/02 07:43:42;;;;;;;7.13;1.90;;;;;;;5.80;100.00;102279.88;5034385;28;20025;-76
2023/04/02 07:46:08;;;;;;;8.95;2.00;;;;;;;6.04;100.00;102289.84;5017175;28;20549;-76
2023/04/02 07:48:34;;;;;;;4.55;1.67;;;;;;;6.30;100.00;102287.97;5033346;28;20379;-76
2023/04/02 07:51:02;;;;;;;6.85;2.00;;;;;;;6.53;100.00;102284.47;5033077;28;20033;-78
2023/04/02 07:53:29;;;;;;;7.70;2.25;;;;;;;6.82;100.00;102295.69;5033047;28;20044;-77
2023/04/02 07:55:56;;;;;;;6.28;2.33;;;;;;;6.89;100.00;102298.78;5016522;28;20510;-76
2023/04/02 07:58:22;;;;;;;4.88;1.80;;;;;;;6.94;100.00;102298.44;4983974;28;20049;-75
2023/04/02 08:00:48;;;;;;;6.22;1.67;;;;;;;7.02;100.00;102296.88;5032828;28;20025;-77
2023/04/02 08:03:15;;;;;;;5.05;1.70;;;;;;;7.29;100.00;102300.28;5016873;28;20033;-76
2023/04/02 08:05:40;;;;;;;8.05;1.98;;;;;;;7.45;100.00;102304.31;5032836;28;20022;-78
2023/04/02 08:08:06;;;;;;;4.47;1.70;;;;;;;7.78;100.00;102305.38;5016811;28;20025;-77
2023/04/02 08:10:31;;;;;;;4.85;1.35;;;;;;;8.49;100.00;102299.78;5033263;28;20040;-77
2023/04/02 08:12:57;;;;;;;4.53;1.17;;;;;;;10.59;100.00;102306.03;5034302;28;20375;-77
2023/04/02 08:15:23;;;;;;;5.60;2.10;;;;;;;11.02;100.00;102314.75;5032995;28;20124;-76
2023/04/02 08:17:48;;;;;;;8.05;1.70;;;;;;;11.33;100.00;102310.06;5032690;28;20078;-76
2023/04/02 08:20:17;;;;;;;3.53;1.35;;;;;;;11.59;100.00;102311.16;5016631;28;20038;-76
2023/04/02 08:22:44;;;;;;;7.93;4.70;;;;;;;12.96;100.00;102316.81;5032856;28;20486;-76
2023/04/02 08:25:10;;;;;;;4.45;2.35;;;;;;;15.73;86.25;102305.56;5000278;28;20129;-77
2023/04/02 08:27:36;;;;;;;8.25;1.60;;;;;;;15.81;82.45;102315.53;5032797;28;20100;-81
2023/04/02 08:30:02;;;;;;;5.70;1.80;;;;;;;15.42;79.68;102331.66;5032680;28;20065;-77
2023/04/02 08:32:28;;;;;;;4.88;1.88;;;;;;;16.61;75.97;102320.00;4999801;28;20534;-76
2023/04/02 08:34:53;;;;;;;7.00;2.67;;;;;;;15.82;76.76;102309.97;5033567;28;20030;-77
2023/04/02 08:37:19;;;;;;;3.45;1.60;;;;;;;15.62;76.61;102324.88;5016325;28;20132;-76
2023/04/02 08:40:19;;;;;;;6.95;3.30;;;;;;;17.04;71.25;102320.47;5032813;28;20040;-76
2023/04/02 08:43:29;;;;;;;8.13;2.10;;;;;;;19.04;63.32;102318.81;5032107;28;20431;-77
2023/04/02 08:46:06;;;;;;;5.57;1.55;;;;;;;19.71;56.84;102325.72;5016247;28;20044;-76
2023/04/02 08:48:34;;;;;;;6.18;1.20;;;;;;;19.58;53.06;102326.44;5016225;28;20130;-77
2023/04/02 08:51:01;;;;;;;6.93;1.92;;;;;;;17.43;57.60;102336.63;4983816;28;20504;-76
2023/04/02 08:53:33;;;;;;;4.50;1.52;;;;;;;15.85;61.05;102321.47;5015792;28;20101;-77
2023/04/02 08:56:07;;;;;;;3.00;1.25;;;;;;;16.29;59.74;102337.28;5015985;28;20167;-77
2023/04/02 08:58:54;;;;;;;7.38;1.70;;;;;;;17.07;57.81;102334.56;5017069;28;20033;-77
2023/04/02 09:01:25;;;;;;;8.85;1.60;;;;;;;18.22;55.83;102331.63;5032017;28;20468;-76
2023/04/02 09:03:54;;;;;;;5.57;1.30;;;;;;;19.58;52.18;102337.34;5032672;28;20186;-78
2023/04/02 09:06:20;;;;;;;7.63;1.60;;;;;;;19.33;47.47;102307.75;5015941;28;20046;-78
2023/04/02 09:08:48;;;;;;;7.82;1.52;;;;;;;18.95;49.13;102331.72;5031636;28;20021;-78
2023/04/02 09:11:24;;;;;;;6.72;1.70;;;;;;;19.00;50.91;102332.00;5002710;28;20456;-80
2023/04/02 09:13:56;;;;;;;5.10;1.85;;;;;;;19.41;50.01;102328.59;5003878;28;20036;-80
2023/04/02 09:16:37;;;;;;;8.27;2.83;;;;;;;19.54;46.98;102331.44;5003807;28;20068;-80
2023/04/02 09:19:34;;;;;;;6.50;1.98;;;;;;;19.97;46.51;102327.81;5036175;28;20040;-80
2023/04/02 09:22:05;;;;;;;6.70;1.75;;;;;;;20.38;44.95;102327.84;5026825;28;20048;-80
2023/04/02 09:24:31;;;;;;;4.95;1.80;;;;;;;20.76;45.59;102323.81;5037490;28;20029;-80
2023/04/02 09:27:00;;;;;;;3.58;1.60;;;;;;;21.25;42.98;102326.22;5035807;28;20115;-80
2023/04/02 09:29:46;;;;;;;5.85;1.80;;;;;;;20.95;44.72;102325.75;5037344;28;20087;-82
2023/04/02 09:32:42;;;;;;;5.47;1.77;;;;;;;21.22;41.82;102328.53;5003323;28;20087;-80
2023/04/02 09:35:17;;;;;;;3.47;1.20;;;;;;;20.74;42.56;102331.38;5036860;28;20036;-80
2023/04/02 09:37:43;;;;;;;3.80;1.38;;;;;;;21.04;43.55;102329.97;5003345;28;20471;-80
2023/04/02 09:40:26;;;;;;;6.25;1.70;;;;;;;21.44;38.90;102330.06;4987106;28;20129;-85
2023/04/02 09:43:12;;;;;;;;;;;;;;;21.14;39.93;102321.34;5003394;28;20036;-80
2023/04/02 09:45:40;;;;;;;6.00;1.67;;;;;;;21.38;41.34;102319.09;5035474;28;19937;-80
2023/04/02 09:48:29;;;;;;;5.95;1.60;;;;;;;21.73;40.34;102312.38;5035750;28;20478;-80
2023/04/02 09:51:19;;;;;;;8.30;1.98;;;;;;;21.59;40.42;102312.56;5019487;28;20021;-80
2023/04/02 09:53:47;;;;;;;2.35;1.30;;;;;;;21.99;37.95;102309.78;5019564;28;20026;-81
2023/04/02 09:56:16;;;;;;;5.47;1.40;;;;;;;22.05;38.70;102318.00;5035709;28;20117;-80
2023/04/02 09:58:43;;;;;;;2.45;1.25;;;;;;;22.29;37.17;102313.75;5019288;28;20040;-81
2023/04/02 10:01:37;;;;;;;4.70;1.13;;;;;;;22.05;34.49;102325.38;5035197;28;20028;-80
2023/04/02 10:04:06;;;;;;;5.07;2.45;;;;;;;22.10;38.56;102314.63;5019271;28;20048;-80
2023/04/02 10:06:33;;;;;;;3.85;1.13;;;;;;;22.26;36.59;102316.06;5035379;28;20029;-80
2023/04/02 10:09:38;;;;;;;3.80;1.13;;;;;;;21.97;36.32;102306.44;5002808;28;20490;-81
2023/04/02 10:12:06;;;;;;;2.67;1.00;;;;;;;21.95;37.50;102310.22;5035298;28;20502;-81
2023/04/02 10:14:37;;;;;;;4.68;1.63;;;;;;;21.95;37.04;102317.59;4986575;28;20030;-82
2023/04/02 10:17:11;;;;;;;3.17;1.52;;;;;;;21.08;40.13;102317.56;5034454;28;20033;-77
2023/04/02 10:19:40;;;;;;;6.60;1.60;;;;;;;20.15;40.23;102317.19;5035700;28;20420;-76
2023/04/02 10:22:12;;;;;;;9.02;1.77;;;;;;;22.02;38.05;102314.84;5017258;28;20025;-76
2023/04/02 10:24:38;;;;;;;1.48;0.90;;;;;;;22.86;35.25;102318.53;5002165;28;20099;-76
2023/04/02 10:27:21;;;;;;;5.63;1.02;;;;;;;21.55;37.87;102317.63;5001881;28;20064;-76
2023/04/02 10:30:01;;;;;;;4.55;1.15;;;;;;;19.66;40.01;102322.72;5018690;28;20025;-76
2023/04/02 10:32:42;;;;;;;4.55;1.33;;;;;;;18.82;44.07;102326.97;5034909;28;20403;-77
2023/04/02 10:35:34;;;;;;;2.03;1.20;;;;;;;20.79;39.61;102307.00;5034835;28;20460;-76
2023/04/02 10:38:15;;;;;;;4.55;1.60;;;;;;;23.03;37.08;102326.06;5018106;28;20071;-76
2023/04/02 10:40:48;;;;;;;5.53;1.38;;;;;;;22.83;32.74;102325.28;5035926;28;20079;-76
2023/04/02 10:43:35;;;;;;;1.63;0.90;;;;;;;21.20;35.81;102306.03;5034775;28;20125;-76
2023/04/02 10:46:07;;;;;;;3.88;1.13;;;;;;;20.68;38.64;102294.75;5018193;28;20365;-74
2023/04/02 10:48:55;;;;;;;3.53;1.20;;;;;;;21.49;35.90;102304.81;5034355;28;20028;-74
2023/04/02 10:51:38;;;;;;;2.22;1.15;;;;;;;18.99;41.85;102294.84;5034391;28;20037;-78
2023/04/02 10:54:10;;;;;;;2.83;1.27;;;;;;;18.95;42.46;102315.38;5017969;28;20043;-76
2023/04/02 10:56:36;;;;;;;2.75;0.80;;;;;;;19.29;40.28;102317.41;5034409;28;20489;-75
2023/04/02 10:59:15;;;;;;;2.50;1.10;;;;;;;19.89;41.29;102314.31;5017672;28;20030;-75
2023/04/02 11:01:42;;;;;;;6.45;1.23;;;;;;;20.85;37.70;102306.16;5016170;28;20068;-81
2023/04/02 11:04:16;;;;;;;5.68;1.50;;;;;;;19.96;39.98;102307.84;5015824;28;20029;-79
2023/04/02 11:07:01;;;;;;;2.72;1.10;;;;;;;18.97;41.28;102313.28;5017455;28;20460;-80
2023/04/02 11:09:32;;;;;;;1.98;0.90;;;;;;;17.59;42.97;102309.28;5034079;28;20033;-80
2023/04/02 11:12:00;;;;;;;3.42;0.95;;;;;;;17.00;44.75;102302.84;5017784;28;20538;-79
2023/04/02 11:14:31;;;;;;;3.28;1.05;;;;;;;16.75;46.70;102293.97;5033843;28;20025;-79
2023/04/02 11:16:57;;;;;;;3.00;1.48;;;;;;;18.14;44.18;102303.66;5017930;28;20128;-79
2023/04/02 11:19:29;;;;;;;3.90;1.40;;;;;;;19.53;42.73;102293.47;5017521;28;20038;-78
2023/04/02 11:21:56;;;;;;;3.70;1.05;;;;;;;18.97;41.22;102305.09;5033636;28;20057;-79
2023/04/02 11:24:32;;;;;;;4.85;1.60;;;;;;;17.68;44.80;102298.38;5034167;28;20099;-79
2023/04/02 11:27:10;;;;;;;3.22;1.00;;;;;;;17.10;46.29;102308.88;5035168;28;20034;-78
2023/04/02 11:29:37;;;;;;;3.60;1.00;;;;;;;16.74;47.70;102273.25;5033838;28;20034;-78
2023/04/02 11:32:25;;;;;;;2.70;0.90;;;;;;;17.15;47.69;102301.03;5033920;28;20044;-79
2023/04/02 11:34:54;;;;;;;2.78;0.90;;;;;;;18.21;44.35;102301.88;5016968;28;20032;-79
2023/04/02 11:37:50;;;;;;;3.75;2.05;;;;;;;18.34;45.40;102301.22;5033743;28;20087;-82
2023/04/02 11:40:18;;;;;;;4.65;1.60;;;;;;;19.01;43.46;102290.06;5024902;28;20037;-81
2023/04/02 11:42:54;;;;;;;5.65;1.98;;;;;;;20.69;41.15;102290.13;5034996;28;20037;-80
2023/04/02 11:45:20;;;;;;;4.35;1.20;;;;;;;22.19;38.21;102275.00;5035557;28;20034;-80
2023/04/02 11:47:58;;;;;;;5.82;2.20;;;;;;;23.29;36.96;102291.25;5035951;28;20025;-79
2023/04/02 11:50:34;;;;;;;2.38;1.05;;;;;;;21.89;35.32;102286.44;5035540;28;20135;-80
2023/04/02 11:53:12;;;;;;;3.58;1.17;;;;;;;20.21;38.61;102286.34;5033854;28;20099;-79